sensor_id;sensor_type;location;lat;lon;timestamp;temperature;humidity
33827;DHT22;20128;45.582;5.298;2022-12-29T00:01:37;11.30;89.20
33827;DHT22;20128;45.582;5.298;2022-12-29T00:04:04;11.30;89.20
33827;DHT22;20128;45.582;5.298;2022-12-29T00:06:30;11.30;89.20
33827;DHT22;20128;45.582;5.298;2022-12-29T00:08:55;11.30;89.20
33827;DHT22;20128;45.582;5.298;2022-12-29T00:11:23;11.30;89.30
33827;DHT22;20128;45.582;5.298;2022-12-29T00:13:49;11.30;89.40
33827;DHT22;20128;45.582;5.298;2022-12-29T00:16:35;11.30;89.50
33827;DHT22;20128;45.582;5.298;2022-12-29T00:19:02;11.30;89.50
33827;DHT22;20128;45.582;5.298;2022-12-29T00:21:28;11.30;89.50
33827;DHT22;20128;45.582;5.298;2022-12-29T00:24:18;11.30;89.50
33827;DHT22;20128;45.582;5.298;2022-12-29T00:27:10;11.30;89.50
33827;DHT22;20128;45.582;5.298;2022-12-29T00:29:55;11.30;89.20
33827;DHT22;20128;45.582;5.298;2022-12-29T00:32:39;11.40;89.00
33827;DHT22;20128;45.582;5.298;2022-12-29T00:35:29;11.40;88.90
33827;DHT22;20128;45.582;5.298;2022-12-29T00:37:58;11.40;88.90
33827;DHT22;20128;45.582;5.298;2022-12-29T00:40:43;11.40;88.70
33827;DHT22;20128;45.582;5.298;2022-12-29T00:43:27;11.40;88.50
33827;DHT22;20128;45.582;5.298;2022-12-29T00:46:11;11.40;88.60
33827;DHT22;20128;45.582;5.298;2022-12-29T00:48:36;11.40;88.60
33827;DHT22;20128;45.582;5.298;2022-12-29T00:51:21;11.40;88.70
33827;DHT22;20128;45.582;5.298;2022-12-29T00:53:46;11.40;88.60
33827;DHT22;20128;45.582;5.298;2022-12-29T00:56:12;11.40;88.70
33827;DHT22;20128;45.582;5.298;2022-12-29T00:58:38;11.40;88.60
33827;DHT22;20128;45.582;5.298;2022-12-29T01:01:04;11.40;88.60
33827;DHT22;20128;45.582;5.298;2022-12-29T01:03:30;11.40;88.60
33827;DHT22;20128;45.582;5.298;2022-12-29T01:05:56;11.40;88.60
33827;DHT22;20128;45.582;5.298;2022-12-29T01:08:22;11.40;88.50
33827;DHT22;20128;45.582;5.298;2022-12-29T01:11:00;11.40;88.50
33827;DHT22;20128;45.582;5.298;2022-12-29T01:13:27;11.40;88.40
33827;DHT22;20128;45.582;5.298;2022-12-29T01:15:53;11.40;88.40
33827;DHT22;20128;45.582;5.298;2022-12-29T01:18:20;11.40;88.50
33827;DHT22;20128;45.582;5.298;2022-12-29T01:20:46;11.40;88.50
33827;DHT22;20128;45.582;5.298;2022-12-29T01:23:12;11.40;88.50
33827;DHT22;20128;45.582;5.298;2022-12-29T01:25:37;11.40;88.30
33827;DHT22;20128;45.582;5.298;2022-12-29T01:28:03;11.40;88.20
33827;DHT22;20128;45.582;5.298;2022-12-29T01:30:29;11.40;88.10
33827;DHT22;20128;45.582;5.298;2022-12-29T01:32:54;11.40;88.10
33827;DHT22;20128;45.582;5.298;2022-12-29T01:35:20;11.40;88.00
33827;DHT22;20128;45.582;5.298;2022-12-29T01:37:46;11.40;87.80
33827;DHT22;20128;45.582;5.298;2022-12-29T01:40:11;11.40;87.90
33827;DHT22;20128;45.582;5.298;2022-12-29T01:42:37;11.40;87.90
33827;DHT22;20128;45.582;5.298;2022-12-29T01:50:15;11.40;87.80
33827;DHT22;20128;45.582;5.298;2022-12-29T01:52:50;11.40;87.60
33827;DHT22;20128;45.582;5.298;2022-12-29T01:55:17;11.40;87.60
33827;DHT22;20128;45.582;5.298;2022-12-29T01:57:46;11.40;87.60
33827;DHT22;20128;45.582;5.298;2022-12-29T02:00:14;11.30;87.60
33827;DHT22;20128;45.582;5.298;2022-12-29T02:02:47;11.30;87.70
33827;DHT22;20128;45.582;5.298;2022-12-29T02:05:40;11.40;87.80
33827;DHT22;20128;45.582;5.298;2022-12-29T02:08:04;11.40;87.60
33827;DHT22;20128;45.582;5.298;2022-12-29T02:10:32;11.40;87.60
33827;DHT22;20128;45.582;5.298;2022-12-29T02:12:59;11.40;87.60
33827;DHT22;20128;45.582;5.298;2022-12-29T02:15:48;11.40;87.60
33827;DHT22;20128;45.582;5.298;2022-12-29T02:18:28;11.40;87.70
33827;DHT22;20128;45.582;5.298;2022-12-29T02:29:58;11.40;87.70
33827;DHT22;20128;45.582;5.298;2022-12-29T02:37:45;11.30;87.90
33827;DHT22;20128;45.582;5.298;2022-12-29T02:43:47;11.30;88.10
33827;DHT22;20128;45.582;5.298;2022-12-29T02:46:19;11.30;88.30
33827;DHT22;20128;45.582;5.298;2022-12-29T02:48:52;11.30;88.30
33827;DHT22;20128;45.582;5.298;2022-12-29T02:54:17;11.20;88.50
33827;DHT22;20128;45.582;5.298;2022-12-29T02:57:02;11.20;88.50
33827;DHT22;20128;45.582;5.298;2022-12-29T02:59:27;11.20;88.60
33827;DHT22;20128;45.582;5.298;2022-12-29T03:16:00;11.00;88.60
33827;DHT22;20128;45.582;5.298;2022-12-29T03:21:03;10.90;88.70
33827;DHT22;20128;45.582;5.298;2022-12-29T03:23:31;11.00;88.90
33827;DHT22;20128;45.582;5.298;2022-12-29T03:26:03;11.00;88.80
33827;DHT22;20128;45.582;5.298;2022-12-29T03:28:35;11.00;88.80
33827;DHT22;20128;45.582;5.298;2022-12-29T03:31:03;11.00;88.80
33827;DHT22;20128;45.582;5.298;2022-12-29T03:33:30;11.00;88.80
33827;DHT22;20128;45.582;5.298;2022-12-29T03:36:03;11.00;88.60
33827;DHT22;20128;45.582;5.298;2022-12-29T03:41:44;11.10;88.70
33827;DHT22;20128;45.582;5.298;2022-12-29T03:44:12;11.10;88.60
33827;DHT22;20128;45.582;5.298;2022-12-29T03:46:38;11.10;88.60
33827;DHT22;20128;45.582;5.298;2022-12-29T03:49:03;11.10;88.20
33827;DHT22;20128;45.582;5.298;2022-12-29T03:51:29;11.10;87.80
33827;DHT22;20128;45.582;5.298;2022-12-29T03:53:55;11.10;87.60
33827;DHT22;20128;45.582;5.298;2022-12-29T03:56:21;11.10;87.50
33827;DHT22;20128;45.582;5.298;2022-12-29T03:58:46;11.10;87.00
33827;DHT22;20128;45.582;5.298;2022-12-29T04:01:12;11.10;86.80
33827;DHT22;20128;45.582;5.298;2022-12-29T04:03:37;11.20;87.10
33827;DHT22;20128;45.582;5.298;2022-12-29T04:06:04;11.20;87.10
33827;DHT22;20128;45.582;5.298;2022-12-29T04:08:29;11.20;86.90
33827;DHT22;20128;45.582;5.298;2022-12-29T04:10:55;11.20;86.70
33827;DHT22;20128;45.582;5.298;2022-12-29T04:13:20;11.20;86.70
33827;DHT22;20128;45.582;5.298;2022-12-29T04:15:46;11.20;86.70
33827;DHT22;20128;45.582;5.298;2022-12-29T04:18:12;11.20;86.80
33827;DHT22;20128;45.582;5.298;2022-12-29T04:20:38;11.20;86.60
33827;DHT22;20128;45.582;5.298;2022-12-29T04:23:23;11.20;86.60
33827;DHT22;20128;45.582;5.298;2022-12-29T04:25:49;11.20;86.30
33827;DHT22;20128;45.582;5.298;2022-12-29T04:28:15;11.20;86.50
33827;DHT22;20128;45.582;5.298;2022-12-29T04:30:42;11.20;86.20
33827;DHT22;20128;45.582;5.298;2022-12-29T04:33:07;11.20;86.10
33827;DHT22;20128;45.582;5.298;2022-12-29T04:35:33;11.20;86.10
33827;DHT22;20128;45.582;5.298;2022-12-29T04:37:59;11.20;85.80
33827;DHT22;20128;45.582;5.298;2022-12-29T04:40:25;11.20;85.80
33827;DHT22;20128;45.582;5.298;2022-12-29T04:42:50;11.20;85.40
33827;DHT22;20128;45.582;5.298;2022-12-29T04:45:16;11.20;85.30
33827;DHT22;20128;45.582;5.298;2022-12-29T04:47:42;11.20;85.30
33827;DHT22;20128;45.582;5.298;2022-12-29T04:50:08;11.20;85.30
33827;DHT22;20128;45.582;5.298;2022-12-29T04:52:34;11.20;85.30
33827;DHT22;20128;45.582;5.298;2022-12-29T04:55:00;11.30;84.80
33827;DHT22;20128;45.582;5.298;2022-12-29T04:57:26;11.30;84.60
33827;DHT22;20128;45.582;5.298;2022-12-29T04:59:52;11.30;84.30
33827;DHT22;20128;45.582;5.298;2022-12-29T05:02:18;11.30;84.60
33827;DHT22;20128;45.582;5.298;2022-12-29T05:04:43;11.30;83.50
33827;DHT22;20128;45.582;5.298;2022-12-29T05:07:09;11.30;83.60
33827;DHT22;20128;45.582;5.298;2022-12-29T05:09:35;11.30;84.00
33827;DHT22;20128;45.582;5.298;2022-12-29T05:12:00;11.30;83.80
33827;DHT22;20128;45.582;5.298;2022-12-29T05:14:26;11.40;83.40
33827;DHT22;20128;45.582;5.298;2022-12-29T05:16:52;11.40;82.60
33827;DHT22;20128;45.582;5.298;2022-12-29T05:19:17;11.40;82.80
33827;DHT22;20128;45.582;5.298;2022-12-29T05:21:43;11.30;82.90
33827;DHT22;20128;45.582;5.298;2022-12-29T05:24:09;11.40;83.00
33827;DHT22;20128;45.582;5.298;2022-12-29T05:26:35;11.40;82.90
33827;DHT22;20128;45.582;5.298;2022-12-29T05:29:01;11.30;82.60
33827;DHT22;20128;45.582;5.298;2022-12-29T05:31:27;11.30;82.70
33827;DHT22;20128;45.582;5.298;2022-12-29T05:33:53;11.40;82.60
33827;DHT22;20128;45.582;5.298;2022-12-29T05:36:19;11.40;82.20
33827;DHT22;20128;45.582;5.298;2022-12-29T05:38:45;11.30;82.10
33827;DHT22;20128;45.582;5.298;2022-12-29T05:41:11;11.40;81.90
33827;DHT22;20128;45.582;5.298;2022-12-29T05:43:36;11.40;82.00
33827;DHT22;20128;45.582;5.298;2022-12-29T05:46:03;11.40;82.10
33827;DHT22;20128;45.582;5.298;2022-12-29T05:48:28;11.40;82.40
33827;DHT22;20128;45.582;5.298;2022-12-29T05:50:54;11.40;81.50
33827;DHT22;20128;45.582;5.298;2022-12-29T05:53:20;11.40;81.50
33827;DHT22;20128;45.582;5.298;2022-12-29T05:55:48;11.40;81.70
33827;DHT22;20128;45.582;5.298;2022-12-29T05:58:16;11.40;82.10
33827;DHT22;20128;45.582;5.298;2022-12-29T06:00:42;11.30;82.10
33827;DHT22;20128;45.582;5.298;2022-12-29T06:03:07;11.30;82.30
33827;DHT22;20128;45.582;5.298;2022-12-29T06:05:33;11.30;82.30
33827;DHT22;20128;45.582;5.298;2022-12-29T06:07:59;11.30;82.40
33827;DHT22;20128;45.582;5.298;2022-12-29T06:10:24;11.40;81.30
33827;DHT22;20128;45.582;5.298;2022-12-29T06:12:50;11.40;81.60
33827;DHT22;20128;45.582;5.298;2022-12-29T06:15:17;11.30;81.20
33827;DHT22;20128;45.582;5.298;2022-12-29T06:17:43;11.30;81.20
33827;DHT22;20128;45.582;5.298;2022-12-29T06:20:09;11.40;81.10
33827;DHT22;20128;45.582;5.298;2022-12-29T06:22:36;11.30;81.10
33827;DHT22;20128;45.582;5.298;2022-12-29T06:25:02;11.30;81.10
33827;DHT22;20128;45.582;5.298;2022-12-29T06:27:28;11.40;81.20
33827;DHT22;20128;45.582;5.298;2022-12-29T06:29:54;11.40;81.30
33827;DHT22;20128;45.582;5.298;2022-12-29T06:32:19;11.40;81.20
33827;DHT22;20128;45.582;5.298;2022-12-29T06:34:45;11.40;81.00
33827;DHT22;20128;45.582;5.298;2022-12-29T06:37:11;11.40;80.90
33827;DHT22;20128;45.582;5.298;2022-12-29T06:39:37;11.40;81.30
33827;DHT22;20128;45.582;5.298;2022-12-29T06:42:03;11.40;81.70
33827;DHT22;20128;45.582;5.298;2022-12-29T06:44:28;11.30;82.00
33827;DHT22;20128;45.582;5.298;2022-12-29T06:46:54;11.30;81.90
33827;DHT22;20128;45.582;5.298;2022-12-29T06:49:20;11.30;81.80
33827;DHT22;20128;45.582;5.298;2022-12-29T06:51:46;11.30;81.80
33827;DHT22;20128;45.582;5.298;2022-12-29T06:54:12;11.30;81.80
33827;DHT22;20128;45.582;5.298;2022-12-29T06:56:38;11.30;82.20
33827;DHT22;20128;45.582;5.298;2022-12-29T06:59:03;11.40;82.50
33827;DHT22;20128;45.582;5.298;2022-12-29T07:01:30;11.30;82.60
33827;DHT22;20128;45.582;5.298;2022-12-29T07:03:55;11.30;82.90
33827;DHT22;20128;45.582;5.298;2022-12-29T07:06:21;11.30;83.00
33827;DHT22;20128;45.582;5.298;2022-12-29T07:08:47;11.30;83.20
33827;DHT22;20128;45.582;5.298;2022-12-29T07:11:12;11.20;83.30
33827;DHT22;20128;45.582;5.298;2022-12-29T07:13:38;11.20;83.50
33827;DHT22;20128;45.582;5.298;2022-12-29T07:16:10;11.30;83.70
33827;DHT22;20128;45.582;5.298;2022-12-29T07:18:36;11.20;83.80
33827;DHT22;20128;45.582;5.298;2022-12-29T07:21:02;11.20;83.70
33827;DHT22;20128;45.582;5.298;2022-12-29T07:23:28;11.10;83.40
33827;DHT22;20128;45.582;5.298;2022-12-29T07:26:20;11.10;83.50
33827;DHT22;20128;45.582;5.298;2022-12-29T07:28:45;11.10;83.40
33827;DHT22;20128;45.582;5.298;2022-12-29T07:31:14;11.10;83.50
33827;DHT22;20128;45.582;5.298;2022-12-29T07:33:41;11.10;83.40
33827;DHT22;20128;45.582;5.298;2022-12-29T07:36:07;11.20;83.30
33827;DHT22;20128;45.582;5.298;2022-12-29T07:38:32;11.20;83.40
33827;DHT22;20128;45.582;5.298;2022-12-29T07:40:58;11.20;83.40
33827;DHT22;20128;45.582;5.298;2022-12-29T07:43:24;11.20;83.50
33827;DHT22;20128;45.582;5.298;2022-12-29T07:45:50;11.20;83.60
33827;DHT22;20128;45.582;5.298;2022-12-29T07:48:16;11.20;83.60
33827;DHT22;20128;45.582;5.298;2022-12-29T07:50:41;11.20;83.40
33827;DHT22;20128;45.582;5.298;2022-12-29T07:53:07;11.20;83.50
33827;DHT22;20128;45.582;5.298;2022-12-29T07:55:33;11.20;83.60
33827;DHT22;20128;45.582;5.298;2022-12-29T07:57:58;11.20;83.70
33827;DHT22;20128;45.582;5.298;2022-12-29T08:00:24;11.30;83.90
33827;DHT22;20128;45.582;5.298;2022-12-29T08:02:50;11.30;83.90
33827;DHT22;20128;45.582;5.298;2022-12-29T08:05:15;11.30;84.10
33827;DHT22;20128;45.582;5.298;2022-12-29T08:07:45;11.30;84.30
33827;DHT22;20128;45.582;5.298;2022-12-29T08:10:11;11.30;84.00
33827;DHT22;20128;45.582;5.298;2022-12-29T08:12:41;11.40;83.80
33827;DHT22;20128;45.582;5.298;2022-12-29T08:15:08;11.40;83.80
33827;DHT22;20128;45.582;5.298;2022-12-29T08:17:34;11.50;84.10
33827;DHT22;20128;45.582;5.298;2022-12-29T08:20:01;11.50;84.60
33827;DHT22;20128;45.582;5.298;2022-12-29T08:22:27;11.60;83.60
33827;DHT22;20128;45.582;5.298;2022-12-29T08:24:52;11.60;83.70
33827;DHT22;20128;45.582;5.298;2022-12-29T08:27:18;11.70;83.90
33827;DHT22;20128;45.582;5.298;2022-12-29T08:29:44;11.70;83.60
33827;DHT22;20128;45.582;5.298;2022-12-29T08:32:10;11.70;83.50
33827;DHT22;20128;45.582;5.298;2022-12-29T08:34:36;11.70;83.20
33827;DHT22;20128;45.582;5.298;2022-12-29T08:37:01;11.80;82.20
33827;DHT22;20128;45.582;5.298;2022-12-29T08:39:28;11.90;82.30
33827;DHT22;20128;45.582;5.298;2022-12-29T08:41:53;11.90;82.50
33827;DHT22;20128;45.582;5.298;2022-12-29T08:44:19;12.00;81.50
33827;DHT22;20128;45.582;5.298;2022-12-29T08:46:45;12.00;81.10
33827;DHT22;20128;45.582;5.298;2022-12-29T08:49:10;12.10;81.70
33827;DHT22;20128;45.582;5.298;2022-12-29T08:51:36;12.20;81.80
33827;DHT22;20128;45.582;5.298;2022-12-29T08:54:02;12.20;81.50
33827;DHT22;20128;45.582;5.298;2022-12-29T08:56:28;12.30;80.50
33827;DHT22;20128;45.582;5.298;2022-12-29T08:58:53;12.30;79.70
33827;DHT22;20128;45.582;5.298;2022-12-29T09:01:19;12.30;79.90
33827;DHT22;20128;45.582;5.298;2022-12-29T09:03:46;12.30;79.90
33827;DHT22;20128;45.582;5.298;2022-12-29T09:06:12;12.40;79.10
33827;DHT22;20128;45.582;5.298;2022-12-29T09:08:38;12.50;79.00
33827;DHT22;20128;45.582;5.298;2022-12-29T09:11:18;12.50;78.70
33827;DHT22;20128;45.582;5.298;2022-12-29T09:13:45;12.60;78.50
33827;DHT22;20128;45.582;5.298;2022-12-29T09:16:10;12.70;78.30
33827;DHT22;20128;45.582;5.298;2022-12-29T09:18:37;12.70;78.40
33827;DHT22;20128;45.582;5.298;2022-12-29T09:21:05;12.80;77.50
33827;DHT22;20128;45.582;5.298;2022-12-29T09:23:32;12.90;77.60
33827;DHT22;20128;45.582;5.298;2022-12-29T09:25:57;12.90;77.70
33827;DHT22;20128;45.582;5.298;2022-12-29T09:28:23;13.00;77.60
33827;DHT22;20128;45.582;5.298;2022-12-29T09:30:50;13.10;77.20
33827;DHT22;20128;45.582;5.298;2022-12-29T09:33:18;13.30;76.70
33827;DHT22;20128;45.582;5.298;2022-12-29T09:35:45;13.40;76.20
33827;DHT22;20128;45.582;5.298;2022-12-29T09:38:15;13.50;75.80
33827;DHT22;20128;45.582;5.298;2022-12-29T09:40:41;13.70;74.60
33827;DHT22;20128;45.582;5.298;2022-12-29T09:43:17;13.80;75.00
33827;DHT22;20128;45.582;5.298;2022-12-29T09:45:53;13.90;74.20
33827;DHT22;20128;45.582;5.298;2022-12-29T09:48:23;14.00;73.10
33827;DHT22;20128;45.582;5.298;2022-12-29T09:50:55;14.10;73.00
33827;DHT22;20128;45.582;5.298;2022-12-29T09:53:43;14.20;72.50
33827;DHT22;20128;45.582;5.298;2022-12-29T09:56:18;14.30;73.00
33827;DHT22;20128;45.582;5.298;2022-12-29T10:03:56;14.60;71.60
33827;DHT22;20128;45.582;5.298;2022-12-29T10:06:32;14.80;70.70
33827;DHT22;20128;45.582;5.298;2022-12-29T10:20:27;15.60;70.70
33827;DHT22;20128;45.582;5.298;2022-12-29T10:25:46;16.00;68.30
33827;DHT22;20128;45.582;5.298;2022-12-29T10:28:20;16.00;67.00
33827;DHT22;20128;45.582;5.298;2022-12-29T10:30:47;16.10;66.30
33827;DHT22;20128;45.582;5.298;2022-12-29T10:33:17;16.00;66.10
33827;DHT22;20128;45.582;5.298;2022-12-29T10:35:44;16.00;65.90
33827;DHT22;20128;45.582;5.298;2022-12-29T10:38:17;16.00;65.70
33827;DHT22;20128;45.582;5.298;2022-12-29T10:41:03;15.90;66.00
33827;DHT22;20128;45.582;5.298;2022-12-29T10:43:40;15.80;66.50
33827;DHT22;20128;45.582;5.298;2022-12-29T10:46:16;15.60;66.70
33827;DHT22;20128;45.582;5.298;2022-12-29T10:48:43;15.50;67.00
33827;DHT22;20128;45.582;5.298;2022-12-29T10:51:20;15.60;67.10
33827;DHT22;20128;45.582;5.298;2022-12-29T10:58:56;16.00;66.10
33827;DHT22;20128;45.582;5.298;2022-12-29T11:01:24;15.90;66.40
33827;DHT22;20128;45.582;5.298;2022-12-29T11:04:00;15.90;66.10
33827;DHT22;20128;45.582;5.298;2022-12-29T11:06:28;15.80;66.50
33827;DHT22;20128;45.582;5.298;2022-12-29T11:09:08;15.70;66.80
33827;DHT22;20128;45.582;5.298;2022-12-29T11:11:36;15.60;67.10
33827;DHT22;20128;45.582;5.298;2022-12-29T11:14:14;15.50;67.40
33827;DHT22;20128;45.582;5.298;2022-12-29T11:16:41;15.50;67.70
33827;DHT22;20128;45.582;5.298;2022-12-29T11:19:20;15.50;68.10
33827;DHT22;20128;45.582;5.298;2022-12-29T11:21:47;15.50;67.50
33827;DHT22;20128;45.582;5.298;2022-12-29T11:24:26;15.40;68.10
33827;DHT22;20128;45.582;5.298;2022-12-29T11:27:08;15.40;68.60
33827;DHT22;20128;45.582;5.298;2022-12-29T11:29:38;15.40;68.70
33827;DHT22;20128;45.582;5.298;2022-12-29T11:32:17;15.40;68.60
33827;DHT22;20128;45.582;5.298;2022-12-29T11:34:43;15.30;69.10
33827;DHT22;20128;45.582;5.298;2022-12-29T11:42:20;15.30;69.30
33827;DHT22;20128;45.582;5.298;2022-12-29T11:44:49;15.30;69.20
33827;DHT22;20128;45.582;5.298;2022-12-29T11:47:29;15.20;69.40
33827;DHT22;20128;45.582;5.298;2022-12-29T11:50:02;15.30;69.30
33827;DHT22;20128;45.582;5.298;2022-12-29T11:52:32;15.30;69.10
33827;DHT22;20128;45.582;5.298;2022-12-29T11:55:02;15.30;69.10
33827;DHT22;20128;45.582;5.298;2022-12-29T11:57:28;15.30;68.50
33827;DHT22;20128;45.582;5.298;2022-12-29T11:59:59;15.30;68.60
33827;DHT22;20128;45.582;5.298;2022-12-29T12:02:40;15.30;68.60
33827;DHT22;20128;45.582;5.298;2022-12-29T12:05:35;15.40;68.70
33827;DHT22;20128;45.582;5.298;2022-12-29T12:08:17;15.40;68.50
33827;DHT22;20128;45.582;5.298;2022-12-29T12:14:00;15.40;68.90
33827;DHT22;20128;45.582;5.298;2022-12-29T12:16:33;15.40;68.80
33827;DHT22;20128;45.582;5.298;2022-12-29T12:21:43;15.40;68.90
33827;DHT22;20128;45.582;5.298;2022-12-29T12:29:38;15.40;68.80
33827;DHT22;20128;45.582;5.298;2022-12-29T12:32:22;15.40;69.10
33827;DHT22;20128;45.582;5.298;2022-12-29T12:34:50;15.40;69.60
33827;DHT22;20128;45.582;5.298;2022-12-29T12:40:20;15.40;69.30
33827;DHT22;20128;45.582;5.298;2022-12-29T12:56:29;15.30;71.60
33827;DHT22;20128;45.582;5.298;2022-12-29T13:11:00;15.20;72.60
33827;DHT22;20128;45.582;5.298;2022-12-29T13:13:54;15.30;73.10
33827;DHT22;20128;45.582;5.298;2022-12-29T13:19:27;15.40;72.70
33827;DHT22;20128;45.582;5.298;2022-12-29T13:22:05;15.40;72.80
33827;DHT22;20128;45.582;5.298;2022-12-29T13:30:57;15.40;72.70
33827;DHT22;20128;45.582;5.298;2022-12-29T13:38:42;15.30;72.30
33827;DHT22;20128;45.582;5.298;2022-12-29T13:41:12;15.30;72.70
33827;DHT22;20128;45.582;5.298;2022-12-29T13:43:41;15.40;72.60
33827;DHT22;20128;45.582;5.298;2022-12-29T13:46:28;15.40;72.50
33827;DHT22;20128;45.582;5.298;2022-12-29T13:48:56;15.40;72.70
33827;DHT22;20128;45.582;5.298;2022-12-29T13:51:25;15.30;72.60
33827;DHT22;20128;45.582;5.298;2022-12-29T13:54:06;15.30;72.90
33827;DHT22;20128;45.582;5.298;2022-12-29T14:04:35;15.20;72.90
33827;DHT22;20128;45.582;5.298;2022-12-29T14:07:15;15.20;73.00
33827;DHT22;20128;45.582;5.298;2022-12-29T14:09:45;15.30;73.30
33827;DHT22;20128;45.582;5.298;2022-12-29T14:12:38;15.30;73.10
33827;DHT22;20128;45.582;5.298;2022-12-29T14:15:21;15.20;73.40
33827;DHT22;20128;45.582;5.298;2022-12-29T14:18:10;15.20;73.50
33827;DHT22;20128;45.582;5.298;2022-12-29T14:20:36;15.20;73.40
33827;DHT22;20128;45.582;5.298;2022-12-29T14:25:54;15.30;73.60
33827;DHT22;20128;45.582;5.298;2022-12-29T14:28:36;15.30;73.80
33827;DHT22;20128;45.582;5.298;2022-12-29T14:36:37;15.20;74.00
33827;DHT22;20128;45.582;5.298;2022-12-29T14:39:04;15.20;73.90
33827;DHT22;20128;45.582;5.298;2022-12-29T14:42:20;15.10;74.20
33827;DHT22;20128;45.582;5.298;2022-12-29T14:50:06;15.10;74.80
33827;DHT22;20128;45.582;5.298;2022-12-29T14:57:52;15.00;75.20
33827;DHT22;20128;45.582;5.298;2022-12-29T15:00:30;15.00;75.30
33827;DHT22;20128;45.582;5.298;2022-12-29T15:03:19;15.00;75.40
33827;DHT22;20128;45.582;5.298;2022-12-29T15:05:58;14.90;75.50
33827;DHT22;20128;45.582;5.298;2022-12-29T15:08:33;14.90;75.60
33827;DHT22;20128;45.582;5.298;2022-12-29T15:11:14;14.90;76.00
33827;DHT22;20128;45.582;5.298;2022-12-29T15:13:42;14.90;76.40
33827;DHT22;20128;45.582;5.298;2022-12-29T15:16:29;14.90;76.40
33827;DHT22;20128;45.582;5.298;2022-12-29T15:18:56;14.90;76.50
33827;DHT22;20128;45.582;5.298;2022-12-29T15:21:29;14.80;76.60
33827;DHT22;20128;45.582;5.298;2022-12-29T15:23:55;14.80;76.60
33827;DHT22;20128;45.582;5.298;2022-12-29T15:26:21;14.80;76.80
33827;DHT22;20128;45.582;5.298;2022-12-29T15:28:50;14.80;76.80
33827;DHT22;20128;45.582;5.298;2022-12-29T15:31:17;14.70;77.00
33827;DHT22;20128;45.582;5.298;2022-12-29T15:33:48;14.70;77.20
33827;DHT22;20128;45.582;5.298;2022-12-29T15:38:48;14.70;77.10
33827;DHT22;20128;45.582;5.298;2022-12-29T15:44:28;14.70;77.40
33827;DHT22;20128;45.582;5.298;2022-12-29T15:46:55;14.70;77.30
33827;DHT22;20128;45.582;5.298;2022-12-29T15:49:21;14.70;77.20
33827;DHT22;20128;45.582;5.298;2022-12-29T15:51:49;14.70;77.10
33827;DHT22;20128;45.582;5.298;2022-12-29T15:54:21;14.70;77.20
33827;DHT22;20128;45.582;5.298;2022-12-29T15:56:49;14.70;77.20
33827;DHT22;20128;45.582;5.298;2022-12-29T15:59:33;14.70;77.30
33827;DHT22;20128;45.582;5.298;2022-12-29T16:02:00;14.60;77.40
33827;DHT22;20128;45.582;5.298;2022-12-29T16:04:29;14.60;77.50
33827;DHT22;20128;45.582;5.298;2022-12-29T16:07:03;14.60;77.40
33827;DHT22;20128;45.582;5.298;2022-12-29T16:09:41;14.60;77.60
33827;DHT22;20128;45.582;5.298;2022-12-29T16:12:16;14.60;77.60
33827;DHT22;20128;45.582;5.298;2022-12-29T16:14:52;14.60;77.60
33827;DHT22;20128;45.582;5.298;2022-12-29T16:17:25;14.60;77.70
33827;DHT22;20128;45.582;5.298;2022-12-29T16:20:01;14.60;77.70
33827;DHT22;20128;45.582;5.298;2022-12-29T16:22:38;14.60;77.70
33827;DHT22;20128;45.582;5.298;2022-12-29T16:25:29;14.50;77.90
33827;DHT22;20128;45.582;5.298;2022-12-29T16:27:58;14.50;78.00
33827;DHT22;20128;45.582;5.298;2022-12-29T16:30:33;14.50;78.30
33827;DHT22;20128;45.582;5.298;2022-12-29T16:33:04;14.50;78.40
33827;DHT22;20128;45.582;5.298;2022-12-29T16:38:19;14.50;78.30
33827;DHT22;20128;45.582;5.298;2022-12-29T16:40:57;14.50;78.50
33827;DHT22;20128;45.582;5.298;2022-12-29T16:48:32;14.50;78.60
33827;DHT22;20128;45.582;5.298;2022-12-29T16:51:04;14.50;78.60
33827;DHT22;20128;45.582;5.298;2022-12-29T16:53:37;14.60;78.60
33827;DHT22;20128;45.582;5.298;2022-12-29T16:56:17;14.60;78.40
33827;DHT22;20128;45.582;5.298;2022-12-29T16:58:49;14.50;78.30
33827;DHT22;20128;45.582;5.298;2022-12-29T17:01:16;14.40;78.60
33827;DHT22;20128;45.582;5.298;2022-12-29T17:03:50;14.50;78.70
33827;DHT22;20128;45.582;5.298;2022-12-29T17:06:18;14.50;79.20
33827;DHT22;20128;45.582;5.298;2022-12-29T17:08:45;14.50;78.50
33827;DHT22;20128;45.582;5.298;2022-12-29T17:14:04;14.50;78.50
33827;DHT22;20128;45.582;5.298;2022-12-29T17:16:29;14.50;78.60
33827;DHT22;20128;45.582;5.298;2022-12-29T17:18:55;14.50;78.70
33827;DHT22;20128;45.582;5.298;2022-12-29T17:21:21;14.50;79.30
33827;DHT22;20128;45.582;5.298;2022-12-29T17:23:46;14.50;78.80
33827;DHT22;20128;45.582;5.298;2022-12-29T17:26:12;14.50;79.00
33827;DHT22;20128;45.582;5.298;2022-12-29T17:28:38;14.40;79.00
33827;DHT22;20128;45.582;5.298;2022-12-29T17:31:05;14.50;79.20
33827;DHT22;20128;45.582;5.298;2022-12-29T17:33:37;14.40;79.20
33827;DHT22;20128;45.582;5.298;2022-12-29T17:36:03;14.40;79.30
33827;DHT22;20128;45.582;5.298;2022-12-29T17:38:36;14.30;79.50
33827;DHT22;20128;45.582;5.298;2022-12-29T17:41:02;14.20;79.60
33827;DHT22;20128;45.582;5.298;2022-12-29T17:43:28;14.10;79.60
33827;DHT22;20128;45.582;5.298;2022-12-29T17:45:55;14.00;80.00
33827;DHT22;20128;45.582;5.298;2022-12-29T17:48:22;13.90;80.30
33827;DHT22;20128;45.582;5.298;2022-12-29T17:50:49;13.80;81.40
33827;DHT22;20128;45.582;5.298;2022-12-29T17:53:20;13.70;81.20
33827;DHT22;20128;45.582;5.298;2022-12-29T17:55:46;13.70;82.10
33827;DHT22;20128;45.582;5.298;2022-12-29T17:58:17;13.60;82.30
33827;DHT22;20128;45.582;5.298;2022-12-29T18:00:44;13.50;82.50
33827;DHT22;20128;45.582;5.298;2022-12-29T18:03:32;13.40;83.40
33827;DHT22;20128;45.582;5.298;2022-12-29T18:05:58;13.30;83.80
33827;DHT22;20128;45.582;5.298;2022-12-29T18:08:24;13.30;84.70
33827;DHT22;20128;45.582;5.298;2022-12-29T18:10:50;13.20;84.90
33827;DHT22;20128;45.582;5.298;2022-12-29T18:13:22;13.20;84.60
33827;DHT22;20128;45.582;5.298;2022-12-29T18:15:48;13.10;85.00
33827;DHT22;20128;45.582;5.298;2022-12-29T18:18:25;13.00;85.50
33827;DHT22;20128;45.582;5.298;2022-12-29T18:20:53;13.00;85.80
33827;DHT22;20128;45.582;5.298;2022-12-29T18:25:58;13.00;86.40
33827;DHT22;20128;45.582;5.298;2022-12-29T18:28:25;13.00;86.70
33827;DHT22;20128;45.582;5.298;2022-12-29T18:30:51;13.10;86.40
33827;DHT22;20128;45.582;5.298;2022-12-29T18:33:19;13.10;86.10
33827;DHT22;20128;45.582;5.298;2022-12-29T18:38:13;13.10;86.00
33827;DHT22;20128;45.582;5.298;2022-12-29T18:40:39;13.20;86.10
33827;DHT22;20128;45.582;5.298;2022-12-29T18:43:04;13.20;86.10
33827;DHT22;20128;45.582;5.298;2022-12-29T18:45:32;13.20;86.20